createdAt,value
2017-11-30T00:00:40.937Z,19.35
2017-11-30T00:03:09.767Z,17.55
2017-11-30T00:05:37.837Z,19.45
2017-11-30T00:08:05.900Z,17.73
2017-11-30T00:10:33.982Z,18.20
2017-11-30T00:13:02.040Z,21.05
2017-11-30T00:15:30.868Z,23.58
2017-11-30T00:17:59.926Z,23.38
2017-11-30T00:20:27.998Z,22.35
2017-11-30T00:22:56.068Z,23.55
2017-11-30T00:25:24.152Z,21.55
2017-11-30T00:27:52.260Z,20.08
2017-11-30T00:30:20.349Z,20.15
2017-11-30T00:32:48.420Z,18.58
2017-11-30T00:35:16.516Z,20.35
2017-11-30T00:37:44.588Z,19.25
2017-11-30T00:40:12.660Z,19.10
2017-11-30T00:42:58.390Z,20.62
2017-11-30T00:45:27.224Z,23.35
2017-11-30T00:47:56.064Z,21.17
2017-11-30T00:50:24.896Z,19.75
2017-11-30T00:52:53.744Z,21.05
2017-11-30T00:55:22.571Z,20.48
2017-11-30T00:57:50.644Z,19.27
2017-11-30T01:00:18.744Z,18.52
2017-11-30T01:02:46.821Z,18.00
2017-11-30T01:05:14.888Z,17.15
2017-11-30T01:07:42.961Z,17.92
2017-11-30T01:10:11.029Z,19.27
2017-11-30T01:12:39.102Z,20.80
2017-11-30T01:15:07.172Z,18.33
2017-11-30T01:17:35.244Z,17.90
2017-11-30T01:20:03.305Z,18.80
2017-11-30T01:22:31.388Z,18.20
2017-11-30T01:24:59.453Z,18.85
2017-11-30T01:27:27.533Z,18.98
2017-11-30T01:29:55.605Z,17.92
2017-11-30T01:32:23.678Z,20.35
2017-11-30T01:34:51.753Z,19.42
2017-11-30T01:37:19.837Z,20.02
2017-11-30T01:39:47.918Z,21.27
2017-11-30T01:42:16.010Z,22.67
2017-11-30T01:44:44.843Z,21.95
2017-11-30T01:47:14.204Z,24.95
2017-11-30T01:49:43.049Z,26.42
2017-11-30T01:52:11.126Z,24.30
2017-11-30T01:54:39.206Z,25.83
2017-11-30T01:57:07.287Z,26.25
2017-11-30T01:59:35.352Z,27.58
2017-11-30T02:02:03.436Z,26.77
2017-11-30T02:04:31.510Z,25.40
2017-11-30T02:06:59.568Z,30.60
2017-11-30T02:09:27.661Z,30.25
2017-11-30T02:11:56.492Z,32.40
2017-11-30T02:14:24.577Z,27.65
2017-11-30T02:16:52.661Z,29.52
2017-11-30T02:19:20.732Z,24.65
2017-11-30T02:21:48.805Z,25.95
2017-11-30T02:24:16.876Z,28.40
2017-11-30T02:26:44.952Z,27.37
2017-11-30T02:29:13.021Z,27.25
2017-11-30T02:31:41.103Z,30.05
2017-11-30T02:34:09.381Z,26.85
2017-11-30T02:36:37.476Z,27.20
2017-11-30T02:39:06.312Z,28.15
2017-11-30T02:41:34.384Z,25.40
2017-11-30T02:44:02.457Z,25.95
2017-11-30T02:46:30.528Z,27.30
2017-11-30T02:48:58.606Z,27.10
2017-11-30T02:51:26.687Z,27.37
2017-11-30T02:53:55.528Z,29.08
2017-11-30T02:56:24.371Z,29.33
2017-11-30T02:58:52.449Z,27.87
2017-11-30T03:01:20.533Z,26.95
2017-11-30T03:03:48.633Z,31.73
2017-11-30T03:06:17.482Z,29.30
2017-11-30T03:08:45.558Z,27.92
2017-11-30T03:11:13.624Z,28.70
2017-11-30T03:13:41.742Z,28.58
2017-11-30T03:16:09.780Z,27.27
2017-11-30T03:18:37.862Z,29.10
2017-11-30T03:21:05.932Z,27.60
2017-11-30T03:23:34.013Z,26.42
2017-11-30T03:26:02.108Z,22.55
2017-11-30T03:28:30.176Z,24.45
2017-11-30T03:30:59.007Z,23.95
2017-11-30T03:33:27.841Z,23.98
2017-11-30T03:35:55.909Z,23.02
2017-11-30T03:38:23.986Z,24.15
2017-11-30T03:40:52.077Z,25.12
2017-11-30T03:43:20.917Z,25.33
2017-11-30T03:45:48.993Z,26.17
2017-11-30T03:48:17.092Z,27.35
2017-11-30T03:50:45.161Z,23.50
2017-11-30T03:53:13.238Z,25.98
2017-11-30T03:55:41.315Z,27.30
2017-11-30T03:58:09.370Z,23.30
2017-11-30T04:00:37.453Z,26.00
2017-11-30T04:03:05.529Z,24.98
2017-11-30T04:05:34.826Z,22.87
2017-11-30T04:08:02.899Z,26.40
2017-11-30T04:10:30.968Z,25.77
2017-11-30T04:12:59.043Z,25.50
2017-11-30T04:15:27.117Z,25.65
2017-11-30T04:17:55.177Z,25.58
2017-11-30T04:20:23.271Z,24.20
2017-11-30T04:22:52.108Z,26.40
2017-11-30T04:25:20.172Z,26.30
2017-11-30T04:27:48.252Z,27.45
2017-11-30T04:30:16.317Z,28.25
2017-11-30T04:32:44.389Z,26.92
2017-11-30T04:35:13.237Z,27.37
2017-11-30T04:37:42.090Z,28.50
2017-11-30T04:40:10.160Z,27.37
2017-11-30T04:42:38.237Z,25.52
2017-11-30T04:45:06.304Z,27.35
2017-11-30T04:47:34.386Z,28.00
2017-11-30T04:50:02.454Z,25.20
2017-11-30T04:52:30.533Z,26.70
2017-11-30T04:54:58.616Z,28.17
2017-11-30T04:57:26.772Z,26.23
2017-11-30T04:59:54.842Z,29.52
2017-11-30T05:02:22.917Z,29.50
2017-11-30T05:04:50.989Z,27.40
2017-11-30T05:07:19.073Z,27.83
2017-11-30T05:09:47.149Z,28.27
2017-11-30T05:12:15.239Z,28.45
2017-11-30T05:14:44.084Z,27.25
2017-11-30T05:17:12.176Z,28.77
2017-11-30T05:19:40.242Z,27.60
2017-11-30T05:22:08.325Z,27.67
2017-11-30T05:24:36.396Z,26.98
2017-11-30T05:27:04.468Z,27.30
2017-11-30T05:29:32.545Z,29.73
2017-11-30T05:32:00.713Z,29.75
2017-11-30T05:34:28.791Z,30.30
2017-11-30T05:36:56.861Z,29.10
2017-11-30T05:39:24.934Z,30.20
2017-11-30T05:41:53.013Z,29.90
2017-11-30T05:44:21.075Z,31.40
2017-11-30T05:46:49.149Z,30.40
2017-11-30T05:49:17.225Z,29.58
2017-11-30T05:51:45.296Z,28.90
2017-11-30T05:54:13.377Z,30.45
2017-11-30T05:56:41.441Z,28.77
2017-11-30T05:59:09.523Z,31.55
2017-11-30T06:01:37.596Z,29.08
2017-11-30T06:04:05.671Z,28.45
2017-11-30T06:06:34.535Z,31.55
2017-11-30T06:09:02.606Z,32.08
2017-11-30T06:11:30.724Z,31.20
2017-11-30T06:13:59.562Z,29.87
2017-11-30T06:16:27.636Z,33.17
2017-11-30T06:18:55.709Z,33.03
2017-11-30T06:21:23.782Z,33.72
2017-11-30T06:23:51.852Z,36.67
2017-11-30T06:26:19.926Z,34.35
2017-11-30T06:28:48.034Z,32.55
2017-11-30T06:31:16.880Z,35.38
2017-11-30T06:33:44.977Z,34.08
2017-11-30T06:36:13.061Z,33.33
2017-11-30T06:38:41.167Z,37.78
2017-11-30T06:41:09.260Z,35.78
2017-11-30T06:43:37.337Z,39.13
2017-11-30T06:46:05.418Z,38.13
2017-11-30T06:48:33.502Z,42.13
2017-11-30T06:51:01.612Z,38.40
2017-11-30T06:53:29.716Z,39.90
2017-11-30T06:55:57.796Z,39.67
2017-11-30T06:58:25.865Z,40.03
2017-11-30T07:00:53.962Z,39.55
2017-11-30T07:03:22.045Z,36.40
2017-11-30T07:05:50.120Z,34.60
2017-11-30T07:08:18.229Z,34.03
2017-11-30T07:10:47.064Z,32.63
2017-11-30T07:13:15.148Z,34.55
2017-11-30T07:15:43.213Z,34.50
2017-11-30T07:18:11.281Z,33.92
2017-11-30T07:20:39.357Z,32.83
2017-11-30T07:23:07.425Z,33.70
2017-11-30T07:25:36.189Z,38.55
2017-11-30T07:28:04.276Z,37.97
2017-11-30T07:30:32.357Z,37.47
2017-11-30T07:33:00.434Z,36.88
2017-11-30T07:35:28.541Z,38.40
2017-11-30T07:37:57.388Z,37.63
2017-11-30T07:40:25.464Z,36.17
2017-11-30T07:42:53.544Z,37.47
2017-11-30T07:45:21.613Z,38.90
2017-11-30T07:47:49.698Z,40.20
2017-11-30T07:50:17.781Z,39.63
2017-11-30T07:52:45.861Z,35.97
2017-11-30T07:55:14.701Z,37.67
2017-11-30T07:57:42.782Z,38.85
2017-11-30T08:00:10.856Z,46.05
2017-11-30T08:02:38.932Z,40.42
2017-11-30T08:05:07.005Z,43.55
2017-11-30T08:07:35.108Z,38.83
2017-11-30T08:10:03.180Z,37.15
2017-11-30T08:12:31.257Z,38.13
2017-11-30T08:15:00.098Z,40.28
2017-11-30T08:17:28.937Z,38.53
2017-11-30T08:19:57.772Z,38.05
2017-11-30T08:22:25.844Z,43.75
2017-11-30T08:24:53.917Z,39.75
2017-11-30T08:27:21.994Z,40.55
2017-11-30T08:29:50.073Z,41.70
2017-11-30T08:32:18.158Z,40.28
2017-11-30T08:34:46.259Z,38.13
2017-11-30T08:37:15.118Z,38.47
2017-11-30T08:39:43.191Z,37.47
2017-11-30T08:42:11.289Z,36.30
2017-11-30T08:44:39.361Z,33.90
2017-11-30T08:47:07.433Z,37.15
2017-11-30T08:49:35.504Z,36.60
2017-11-30T08:52:03.570Z,35.47
2017-11-30T08:54:31.796Z,37.78
2017-11-30T08:56:59.873Z,36.80
2017-11-30T08:59:27.949Z,33.40
2017-11-30T09:01:56.777Z,32.00
2017-11-30T09:04:24.858Z,35.67
2017-11-30T09:06:52.930Z,36.60
2017-11-30T09:09:21.002Z,35.20
2017-11-30T09:11:49.077Z,33.47
2017-11-30T09:14:17.154Z,33.80
2017-11-30T09:16:45.993Z,34.03
2017-11-30T09:19:14.832Z,29.33
2017-11-30T09:21:42.900Z,29.10
2017-11-30T09:24:10.980Z,30.20
2017-11-30T09:26:39.817Z,31.70
2017-11-30T09:29:07.890Z,34.65
2017-11-30T09:31:36.714Z,31.58
2017-11-30T09:34:04.808Z,31.80
2017-11-30T09:36:33.659Z,31.48
2017-11-30T09:39:01.754Z,33.78
2017-11-30T09:41:29.821Z,30.98
2017-11-30T09:43:57.889Z,31.30
2017-11-30T09:46:25.977Z,31.85
2017-11-30T09:48:54.042Z,34.05
2017-11-30T09:51:22.118Z,31.77
2017-11-30T09:53:50.963Z,34.70
2017-11-30T09:56:19.044Z,33.78
2017-11-30T09:58:47.104Z,33.78
2017-11-30T10:01:15.213Z,31.65
2017-11-30T10:03:43.290Z,30.50
2017-11-30T10:06:11.356Z,31.95
2017-11-30T10:08:39.445Z,31.50
2017-11-30T10:11:07.520Z,30.20
2017-11-30T10:13:35.575Z,30.12
2017-11-30T10:16:03.689Z,30.12
2017-11-30T10:18:32.526Z,31.00
2017-11-30T10:21:00.597Z,28.25
2017-11-30T10:23:28.705Z,31.27
2017-11-30T10:25:57.549Z,27.65
2017-11-30T10:28:26.384Z,30.40
2017-11-30T10:30:55.229Z,31.80
2017-11-30T10:33:23.308Z,32.42
2017-11-30T10:35:51.385Z,29.85
2017-11-30T10:38:19.585Z,37.20
2017-11-30T10:40:47.835Z,41.78
2017-11-30T10:43:16.120Z,33.10
2017-11-30T10:45:44.404Z,30.08
2017-11-30T10:48:12.645Z,28.65
2017-11-30T10:50:40.814Z,27.37
2017-11-30T10:53:08.893Z,29.40
2017-11-30T10:55:36.960Z,28.83
2017-11-30T10:58:05.176Z,30.00
2017-11-30T11:00:33.352Z,31.62
2017-11-30T11:03:01.435Z,28.60
2017-11-30T11:05:29.595Z,28.42
2017-11-30T11:07:57.760Z,30.65
2017-11-30T11:10:25.937Z,30.67
2017-11-30T11:12:54.125Z,29.77
2017-11-30T11:15:22.381Z,28.90
2017-11-30T11:17:51.347Z,30.37
2017-11-30T11:20:19.430Z,31.52
2017-11-30T11:22:47.568Z,32.47
2017-11-30T11:25:16.561Z,31.33
2017-11-30T11:27:45.534Z,29.63
2017-11-30T11:30:13.766Z,25.73
2017-11-30T11:32:41.856Z,22.35
2017-11-30T11:35:09.945Z,21.33
2017-11-30T11:37:38.120Z,19.90
2017-11-30T11:40:06.248Z,18.83
2017-11-30T11:42:34.393Z,19.10
2017-11-30T11:45:03.225Z,18.00
2017-11-30T11:47:31.337Z,17.87
2017-11-30T11:49:59.413Z,16.58
2017-11-30T11:52:28.272Z,15.18
2017-11-30T11:54:56.371Z,13.20
2017-11-30T11:57:24.449Z,14.85
2017-11-30T11:59:52.526Z,11.25
2017-11-30T12:02:21.396Z,12.65
2017-11-30T12:04:49.470Z,13.25
2017-11-30T12:07:17.537Z,15.40
2017-11-30T12:09:45.617Z,15.20
2017-11-30T12:12:13.708Z,15.30
2017-11-30T12:14:42.548Z,14.75
2017-11-30T12:17:10.637Z,13.45
2017-11-30T12:19:38.712Z,15.23
2017-11-30T12:22:06.785Z,16.05
2017-11-30T12:24:34.868Z,14.80
2017-11-30T12:27:02.937Z,13.82
2017-11-30T12:29:31.021Z,14.82
2017-11-30T12:31:59.092Z,14.40
2017-11-30T12:34:27.167Z,14.68
2017-11-30T12:36:55.237Z,12.35
2017-11-30T12:39:23.318Z,10.35
2017-11-30T12:41:52.152Z,10.07
2017-11-30T12:44:20.224Z,11.63
2017-11-30T12:46:48.305Z,11.45
2017-11-30T12:49:16.393Z,11.90
2017-11-30T12:51:44.465Z,11.30
2017-11-30T12:54:12.541Z,10.80
2017-11-30T12:56:40.625Z,11.32
2017-11-30T12:59:08.703Z,9.80
2017-11-30T13:01:36.789Z,10.85
2017-11-30T13:04:05.663Z,9.15
2017-11-30T13:06:33.752Z,11.65
2017-11-30T13:09:02.646Z,10.20
2017-11-30T13:11:31.496Z,8.00
2017-11-30T13:13:59.567Z,8.75
2017-11-30T13:16:27.643Z,8.65
2017-11-30T13:18:55.711Z,11.30
2017-11-30T13:21:23.787Z,10.70
2017-11-30T13:23:51.850Z,9.80
2017-11-30T13:26:19.955Z,10.43
2017-11-30T13:28:48.010Z,8.75
2017-11-30T13:31:16.083Z,8.82
2017-11-30T13:33:44.159Z,8.13
2017-11-30T13:36:12.235Z,7.70
2017-11-30T13:38:40.319Z,9.30
2017-11-30T13:41:08.394Z,9.43
2017-11-30T13:43:37.252Z,11.32
2017-11-30T13:46:05.319Z,12.37
2017-11-30T13:48:33.399Z,9.93
2017-11-30T13:51:01.640Z,9.63
2017-11-30T13:53:29.732Z,10.80
2017-11-30T13:55:57.835Z,11.50
2017-11-30T13:58:25.908Z,10.30
2017-11-30T14:00:54.001Z,12.30
2017-11-30T14:03:22.847Z,14.57
2017-11-30T14:05:50.940Z,17.02
2017-11-30T14:08:19.124Z,16.65
2017-11-30T14:10:47.205Z,12.85
2017-11-30T14:13:16.052Z,12.00
2017-11-30T14:15:44.142Z,11.45
2017-11-30T14:18:12.238Z,11.77
2017-11-30T14:20:40.358Z,13.05
2017-11-30T14:23:08.384Z,11.52
2017-11-30T14:25:37.244Z,13.48
2017-11-30T14:28:05.332Z,11.18
2017-11-30T14:30:33.432Z,12.25
2017-11-30T14:33:02.308Z,13.55
2017-11-30T14:35:30.395Z,13.45
2017-11-30T14:37:59.251Z,12.40
2017-11-30T14:40:27.340Z,18.50
2017-11-30T14:42:55.405Z,17.77
2017-11-30T14:45:23.515Z,18.12
2017-11-30T14:47:52.393Z,17.85
2017-11-30T14:50:21.241Z,14.23
2017-11-30T14:52:49.320Z,14.05
2017-11-30T14:55:17.403Z,13.05
2017-11-30T14:57:45.470Z,12.75
2017-11-30T15:00:13.559Z,21.55
2017-11-30T15:02:42.462Z,14.20
2017-11-30T15:05:11.312Z,13.65
2017-11-30T15:07:39.510Z,12.73
2017-11-30T15:10:07.691Z,11.63
2017-11-30T15:12:35.756Z,11.70
2017-11-30T15:15:04.066Z,12.35
2017-11-30T15:17:32.257Z,13.50
2017-11-30T15:20:01.185Z,13.60
2017-11-30T15:22:29.337Z,14.07
2017-11-30T15:24:57.523Z,13.55
2017-11-30T15:27:26.455Z,12.32
2017-11-30T15:29:54.616Z,14.48
2017-11-30T15:32:22.778Z,12.98
2017-11-30T15:34:51.687Z,16.10
2017-11-30T15:37:19.860Z,16.27
2017-11-30T15:39:48.126Z,16.33
2017-11-30T15:42:16.216Z,18.02
2017-11-30T15:44:45.104Z,15.98
2017-11-30T15:47:13.340Z,18.05
2017-11-30T15:49:42.263Z,21.52
2017-11-30T15:52:11.443Z,20.48
2017-11-30T15:54:39.533Z,22.10
2017-11-30T15:57:07.606Z,22.10
2017-11-30T15:59:35.708Z,22.20
2017-11-30T16:02:03.770Z,35.15
2017-11-30T16:04:32.603Z,23.00
2017-11-30T16:07:00.751Z,22.85
2017-11-30T16:09:28.764Z,25.88
2017-11-30T16:11:56.846Z,28.35
2017-11-30T16:14:24.931Z,21.67
2017-11-30T16:16:53.027Z,27.80
2017-11-30T16:19:21.867Z,79.90
2017-11-30T16:21:49.972Z,24.67
2017-11-30T16:24:18.040Z,25.30
2017-11-30T16:26:46.136Z,30.42
2017-11-30T16:29:14.981Z,28.95
2017-11-30T16:31:43.048Z,26.20
2017-11-30T16:34:11.123Z,27.00
2017-11-30T16:36:39.191Z,29.73
2017-11-30T16:39:07.279Z,24.33
2017-11-30T16:41:35.364Z,26.12
2017-11-30T16:44:03.456Z,25.37
2017-11-30T16:46:32.287Z,25.98
2017-11-30T16:49:01.135Z,24.90
2017-11-30T16:51:29.972Z,26.42
2017-11-30T16:53:58.055Z,22.73
2017-11-30T16:56:26.127Z,27.83
2017-11-30T16:58:54.211Z,25.30
2017-11-30T17:01:22.283Z,27.73
2017-11-30T17:03:50.360Z,31.95
2017-11-30T17:06:18.432Z,25.08
2017-11-30T17:08:46.515Z,25.52
2017-11-30T17:11:14.583Z,25.42
2017-11-30T17:13:42.675Z,23.42
2017-11-30T17:16:11.515Z,24.85
2017-11-30T17:18:39.591Z,26.55
2017-11-30T17:21:07.674Z,28.50
2017-11-30T17:23:35.744Z,25.20
2017-11-30T17:26:03.844Z,29.10
2017-11-30T17:28:32.674Z,28.67
2017-11-30T17:31:00.751Z,30.23
2017-11-30T17:33:28.823Z,27.67
2017-11-30T17:35:56.906Z,30.65
2017-11-30T17:38:24.989Z,34.28
2017-11-30T17:40:53.077Z,51.63
2017-11-30T17:43:21.148Z,33.42
2017-11-30T17:45:49.231Z,29.05
2017-11-30T17:48:17.294Z,28.05
2017-11-30T17:50:45.383Z,35.67
2017-11-30T17:53:13.447Z,34.08
2017-11-30T17:55:41.528Z,35.53
2017-11-30T17:58:10.368Z,106.15
2017-11-30T18:00:38.456Z,47.90
2017-11-30T18:03:06.528Z,50.45
2017-11-30T18:05:34.832Z,116.53
2017-11-30T18:08:02.904Z,66.30
2017-11-30T18:10:30.999Z,53.53
2017-11-30T18:12:59.883Z,43.80
2017-11-30T18:15:28.711Z,47.35
2017-11-30T18:17:56.791Z,31.55
2017-11-30T18:20:24.868Z,30.80
2017-11-30T18:22:52.948Z,86.87
2017-11-30T18:25:21.028Z,38.60
2017-11-30T18:27:49.128Z,40.67
2017-11-30T18:30:17.960Z,33.40
2017-11-30T18:32:46.035Z,29.87
2017-11-30T18:35:14.879Z,32.83
2017-11-30T18:37:43.719Z,29.52
2017-11-30T18:40:12.563Z,30.12
2017-11-30T18:42:41.399Z,34.97
2017-11-30T18:45:09.476Z,31.05
2017-11-30T18:47:37.547Z,27.75
2017-11-30T18:50:05.622Z,28.30
2017-11-30T18:52:33.691Z,30.67
2017-11-30T18:55:01.766Z,53.83
2017-11-30T18:57:29.880Z,32.67
2017-11-30T18:59:57.955Z,32.30
2017-11-30T19:02:26.023Z,28.58
2017-11-30T19:04:54.091Z,30.83
2017-11-30T19:07:22.171Z,27.90
2017-11-30T19:09:50.251Z,30.77
2017-11-30T19:12:19.086Z,31.42
2017-11-30T19:14:47.567Z,30.60
2017-11-30T19:17:15.632Z,31.70
2017-11-30T19:19:44.459Z,31.60
2017-11-30T19:22:12.540Z,30.67
2017-11-30T19:24:40.627Z,31.42
2017-11-30T19:27:09.475Z,36.05
2017-11-30T19:29:37.547Z,32.95
2017-11-30T19:32:05.628Z,34.50
2017-11-30T19:34:33.694Z,32.67
2017-11-30T19:37:01.766Z,32.20
2017-11-30T19:39:29.836Z,28.75
2017-11-30T19:41:57.914Z,30.25
2017-11-30T19:44:25.992Z,29.30
2017-11-30T19:46:54.079Z,29.87
2017-11-30T19:49:22.151Z,30.40
2017-11-30T19:51:50.225Z,32.25
2017-11-30T19:54:18.288Z,31.00
2017-11-30T19:56:46.371Z,31.37
2017-11-30T19:59:14.430Z,32.90
2017-11-30T20:01:42.503Z,32.40
2017-11-30T20:04:10.572Z,34.55
2017-11-30T20:06:38.643Z,32.53
2017-11-30T20:09:06.723Z,30.88
2017-11-30T20:11:34.806Z,27.75
2017-11-30T20:14:02.875Z,31.05
2017-11-30T20:16:30.954Z,28.85
2017-11-30T20:18:59.790Z,26.65
2017-11-30T20:21:28.677Z,31.23
2017-11-30T20:23:58.244Z,28.70
2017-11-30T20:26:26.316Z,28.12
2017-11-30T20:28:55.834Z,31.00
2017-11-30T20:31:29.736Z,31.55
2017-11-30T20:33:58.588Z,30.88
2017-11-30T20:36:26.658Z,32.05
2017-11-30T20:38:54.739Z,41.08
2017-11-30T20:41:22.856Z,42.50
2017-11-30T20:43:51.695Z,38.83
2017-11-30T20:46:19.766Z,32.90
2017-11-30T20:48:47.842Z,32.60
2017-11-30T20:51:15.909Z,33.00
2017-11-30T20:53:43.978Z,34.90
2017-11-30T20:56:12.051Z,33.10
2017-11-30T20:58:40.123Z,34.72
2017-11-30T21:01:08.195Z,31.67
2017-11-30T21:03:36.270Z,32.08
2017-11-30T21:06:04.342Z,32.45
2017-11-30T21:08:32.418Z,31.75
2017-11-30T21:11:01.412Z,34.05
2017-11-30T21:13:29.507Z,33.95
2017-11-30T21:15:57.571Z,41.65
2017-11-30T21:18:25.639Z,35.90
2017-11-30T21:20:53.723Z,40.40
2017-11-30T21:23:22.584Z,34.65
2017-11-30T21:25:50.659Z,34.38
2017-11-30T21:28:18.738Z,33.92
2017-11-30T21:30:46.819Z,34.80
2017-11-30T21:33:14.903Z,35.95
2017-11-30T21:35:43.009Z,34.10
2017-11-30T21:38:11.076Z,35.92
2017-11-30T21:40:39.940Z,36.13
2017-11-30T21:43:07.996Z,34.45
2017-11-30T21:45:36.156Z,37.38
2017-11-30T21:48:04.219Z,38.78
2017-11-30T21:50:32.299Z,43.83
2017-11-30T21:53:00.375Z,34.10
2017-11-30T21:55:28.459Z,35.95
2017-11-30T21:57:56.523Z,33.80
2017-11-30T22:00:24.606Z,34.95
2017-11-30T22:02:52.680Z,36.47
2017-11-30T22:05:20.759Z,61.80
2017-11-30T22:07:48.842Z,39.88
2017-11-30T22:10:16.907Z,35.95
2017-11-30T22:12:44.980Z,32.90
2017-11-30T22:15:13.054Z,34.50
2017-11-30T22:17:41.126Z,37.13
2017-11-30T22:20:09.191Z,37.17
2017-11-30T22:22:37.267Z,40.75
2017-11-30T22:25:05.339Z,35.05
2017-11-30T22:27:33.473Z,40.08
2017-11-30T22:30:01.548Z,37.63
2017-11-30T22:32:30.391Z,51.67
2017-11-30T22:34:59.235Z,42.80
2017-11-30T22:37:27.352Z,42.45
2017-11-30T22:39:56.206Z,39.17
2017-11-30T22:42:24.288Z,36.58
2017-11-30T22:44:52.364Z,37.38
2017-11-30T22:47:20.443Z,44.83
2017-11-30T22:49:48.581Z,39.97
2017-11-30T22:52:17.418Z,40.97
2017-11-30T22:54:46.260Z,45.30
2017-11-30T22:57:14.334Z,40.83
2017-11-30T22:59:42.493Z,38.47
2017-11-30T23:02:10.564Z,39.17
2017-11-30T23:04:38.640Z,39.85
2017-11-30T23:07:06.752Z,37.30
2017-11-30T23:09:34.820Z,37.75
2017-11-30T23:12:02.903Z,35.28
2017-11-30T23:14:30.978Z,37.53
2017-11-30T23:16:59.048Z,36.83
2017-11-30T23:19:27.125Z,35.80
2017-11-30T23:21:55.196Z,37.33
2017-11-30T23:24:23.286Z,36.40
2017-11-30T23:26:52.115Z,36.45
2017-11-30T23:29:20.243Z,34.70
2017-11-30T23:31:49.099Z,41.40
2017-11-30T23:34:17.180Z,37.20
2017-11-30T23:36:45.264Z,39.03
2017-11-30T23:39:13.401Z,34.80
2017-11-30T23:41:41.482Z,37.40
2017-11-30T23:44:09.675Z,35.05
2017-11-30T23:46:37.755Z,38.15
2017-11-30T23:49:05.832Z,34.53
2017-11-30T23:51:33.909Z,34.80
2017-11-30T23:54:01.984Z,38.03
2017-11-30T23:56:30.841Z,35.70
2017-11-30T23:58:58.919Z,36.55
